Time,TemperatureF,DewpointF,PressureIn,WindDirection,WindDirectionDegrees,WindSpeedMPH,WindSpeedGustMPH,Humidity,HourlyPrecipIn,Conditions,Clouds,dailyrainin,SoftwareType,DateUTC
2013-05-04 00:02:00,46.0,44.0,30.04,NNW,346,0.0,0.0,92,0.00,,,0.02,,2013-05-04 05:02:00,
2013-05-04 00:11:00,46.0,44.0,30.04,NNW,346,0.0,0.0,92,0.00,,,0.02,,2013-05-04 05:11:00,
2013-05-04 00:22:00,45.0,43.0,30.04,NNW,345,0.0,0.0,93,0.00,,,0.02,,2013-05-04 05:22:00,
2013-05-04 00:32:00,45.0,43.0,30.04,NNW,345,0.0,0.0,94,0.00,,,0.02,,2013-05-04 05:32:00,
2013-05-04 00:42:00,45.0,43.0,30.04,NNW,345,0.0,0.0,94,0.00,,,0.02,,2013-05-04 05:42:00,
2013-05-04 00:52:00,45.0,43.0,30.04,NNW,345,0.0,0.0,94,0.00,,,0.02,,2013-05-04 05:52:00,
2013-05-04 01:01:00,44.0,42.0,30.04,NNW,345,0.0,0.0,94,0.00,,,0.02,,2013-05-04 06:01:00,
2013-05-04 01:11:00,44.0,42.0,30.04,NNW,345,0.0,0.0,94,0.00,,,0.02,,2013-05-04 06:11:00,
2013-05-04 01:21:00,44.0,42.0,30.03,NNW,345,0.0,0.0,94,0.00,,,0.02,,2013-05-04 06:21:00,
2013-05-04 01:32:00,44.0,43.0,30.03,NNW,345,0.0,0.0,95,0.00,,,0.02,,2013-05-04 06:32:00,
2013-05-04 01:42:00,44.0,43.0,30.03,NNW,345,0.0,0.0,95,0.00,,,0.02,,2013-05-04 06:42:00,
2013-05-04 01:52:00,43.0,42.0,30.02,NNW,346,0.0,0.0,95,0.00,,,0.01,,2013-05-04 06:52:00,
2013-05-04 02:01:00,43.0,42.0,30.01,NNW,345,0.0,0.0,95,0.00,,,0.01,,2013-05-04 07:01:00,
2013-05-04 02:11:00,43.0,42.0,30.01,NNW,345,0.0,0.0,95,0.00,,,0.01,,2013-05-04 07:11:00,
2013-05-04 02:21:00,43.0,42.0,30.01,NNW,345,0.0,0.0,95,0.00,,,0.01,,2013-05-04 07:21:00,
2013-05-04 02:32:00,42.0,41.0,30.00,NNW,345,0.0,0.0,95,0.00,,,0.01,,2013-05-04 07:32:00,
2013-05-04 02:42:00,42.0,41.0,30.00,NNW,345,0.0,0.0,95,0.00,,,0.01,,2013-05-04 07:42:00,
2013-05-04 02:52:00,42.0,41.0,29.99,NNW,346,0.0,0.0,95,0.00,,,0.01,,2013-05-04 07:52:00,
2013-05-04 03:01:00,41.0,40.0,29.99,NNW,346,0.0,0.0,95,0.00,,,0.01,,2013-05-04 08:01:00,
2013-05-04 03:11:00,41.0,40.0,29.99,NNW,346,0.0,0.0,95,0.00,,,0.01,,2013-05-04 08:11:00,
2013-05-04 03:21:00,41.0,40.0,29.99,NNW,345,0.0,0.0,95,0.00,,,0.01,,2013-05-04 08:21:00,
2013-05-04 03:31:00,41.0,40.0,29.99,NNW,345,0.0,0.0,95,0.00,,,0.01,,2013-05-04 08:31:00,
2013-05-04 03:42:00,41.0,40.0,29.99,NNW,345,0.0,0.0,95,0.00,,,0.01,,2013-05-04 08:42:00,
2013-05-04 03:52:00,41.0,40.0,29.99,NNW,345,0.0,0.0,95,0.00,,,0.01,,2013-05-04 08:52:00,
2013-05-04 04:02:00,41.0,40.0,29.99,NNW,345,0.0,0.0,95,0.00,,,0.01,,2013-05-04 09:02:00,
2013-05-04 04:11:00,41.0,40.0,29.99,NNW,345,0.0,0.0,95,0.00,,,0.01,,2013-05-04 09:11:00,
2013-05-04 04:21:00,40.0,39.0,30.00,NNW,345,0.0,0.0,95,0.00,,,0.01,,2013-05-04 09:21:00,
2013-05-04 04:32:00,40.0,39.0,29.99,NNW,345,0.0,0.0,95,0.00,,,0.01,,2013-05-04 09:32:00,
2013-05-04 04:42:00,40.0,39.0,29.99,NNW,345,0.0,0.0,95,0.00,,,0.01,,2013-05-04 09:42:00,
2013-05-04 04:52:00,40.0,39.0,29.99,NNW,345,0.0,0.0,95,0.00,,,0.01,,2013-05-04 09:52:00,
2013-05-04 05:03:00,40.0,39.0,29.99,NNW,345,0.0,0.0,96,0.00,,,0.01,,2013-05-04 10:03:00,
2013-05-04 05:12:00,40.0,39.0,29.99,NNW,345,0.0,0.0,96,0.00,,,0.01,,2013-05-04 10:12:00,
2013-05-04 05:23:00,40.0,39.0,29.99,NNW,345,0.0,0.0,96,0.00,,,0.01,,2013-05-04 10:23:00,
2013-05-04 05:33:00,40.0,39.0,29.99,NNW,345,0.0,0.0,96,0.00,,,0.01,,2013-05-04 10:33:00,
2013-05-04 05:42:00,40.0,39.0,29.99,NNW,345,0.0,0.0,96,0.00,,,0.01,,2013-05-04 10:42:00,
2013-05-04 05:52:00,39.0,38.0,29.99,NNW,345,0.0,0.0,96,0.00,,,0.01,,2013-05-04 10:52:00,
2013-05-04 06:02:00,40.0,39.0,29.99,NNW,345,0.0,0.0,96,0.00,,,0.01,,2013-05-04 11:02:00,
2013-05-04 06:11:00,40.0,39.0,29.99,NNW,345,0.0,0.0,96,0.00,,,0.01,,2013-05-04 11:11:00,
2013-05-04 06:21:00,39.0,38.0,30.00,NNW,346,0.0,0.0,96,0.00,,,0.01,,2013-05-04 11:21:00,
2013-05-04 06:32:00,39.0,38.0,30.00,NNW,345,0.0,0.0,96,0.00,,,0.01,,2013-05-04 11:32:00,
2013-05-04 06:42:00,39.0,38.0,30.00,NNW,345,0.0,0.0,96,0.00,,,0.01,,2013-05-04 11:42:00,
2013-05-04 06:55:00,39.0,38.0,30.00,NNW,345,0.0,0.0,96,0.00,,,0.01,,2013-05-04 11:55:00,
2013-05-04 07:06:00,39.0,38.0,30.01,NNW,346,0.0,0.0,96,0.00,,,0.01,,2013-05-04 12:06:00,
2013-05-04 07:13:00,39.0,38.0,30.01,NNW,346,0.0,0.0,96,0.00,,,0.01,,2013-05-04 12:13:00,
2013-05-04 07:36:00,44.0,43.0,30.02,NNW,345,0.0,0.0,96,0.00,,,0.01,,2013-05-04 12:36:00,
2013-05-04 07:42:00,44.0,43.0,30.02,NNW,345,0.0,0.0,96,0.00,,,0.01,,2013-05-04 12:42:00,
2013-05-04 07:51:00,45.0,44.0,30.02,NNW,345,0.0,0.0,96,0.00,,,0.00,,2013-05-04 12:51:00,
2013-05-04 08:01:00,46.0,45.0,30.02,NNW,344,0.0,0.0,96,0.00,,,0.00,,2013-05-04 13:01:00,
2013-05-04 08:11:00,46.0,45.0,30.02,NNW,344,0.0,0.0,96,0.00,,,0.00,,2013-05-04 13:11:00,
2013-05-04 08:21:00,48.0,47.0,30.01,West,273,0.0,1.0,96,0.00,,,0.00,,2013-05-04 13:21:00,
2013-05-04 08:32:00,49.0,47.0,30.01,SSW,197,0.0,1.0,94,0.00,,,0.00,,2013-05-04 13:32:00,
2013-05-04 08:42:00,49.0,47.0,30.01,SSW,197,0.0,1.0,94,0.00,,,0.00,,2013-05-04 13:42:00,
2013-05-04 08:52:00,50.0,47.0,30.01,WSW,248,0.0,1.0,89,0.00,,,0.00,,2013-05-04 13:52:00,
2013-05-04 09:02:00,52.0,47.0,30.01,West,260,0.0,2.0,83,0.00,,,0.00,,2013-05-04 14:02:00,
2013-05-04 09:11:00,52.0,47.0,30.01,West,260,0.0,2.0,83,0.00,,,0.00,,2013-05-04 14:11:00,
2013-05-04 09:21:00,53.0,47.0,30.01,WSW,243,0.0,1.0,79,0.00,,,0.00,,2013-05-04 14:21:00,
2013-05-04 09:32:00,55.0,48.0,30.01,West,267,0.0,4.0,78,0.00,,,0.00,,2013-05-04 14:32:00,
2013-05-04 09:42:00,55.0,48.0,30.01,West,267,0.0,4.0,78,0.00,,,0.00,,2013-05-04 14:42:00,
2013-05-04 09:52:00,57.0,48.0,30.02,SSW,194,0.0,3.0,72,0.00,,,0.00,,2013-05-04 14:52:00,
2013-05-04 10:02:00,58.0,47.0,30.02,WSW,250,1.0,4.0,67,0.00,,,0.00,,2013-05-04 15:02:00,
2013-05-04 10:12:00,58.0,47.0,30.02,WSW,250,1.0,4.0,67,0.00,,,0.00,,2013-05-04 15:12:00,
2013-05-04 10:22:00,60.0,46.0,30.02,WSW,242,1.0,5.0,60,0.00,,,0.00,,2013-05-04 15:22:00,
2013-05-04 10:33:00,62.0,47.0,30.02,WSW,239,0.0,5.0,58,0.00,,,0.00,,2013-05-04 15:33:00,
2013-05-04 10:43:00,62.0,47.0,30.02,WSW,239,0.0,5.0,58,0.00,,,0.00,,2013-05-04 15:43:00,
2013-05-04 10:53:00,62.0,47.0,30.02,WSW,239,0.0,5.0,58,0.00,,,0.00,,2013-05-04 15:53:00,
2013-05-04 11:03:00,65.0,44.0,30.01,NW,304,1.0,5.0,47,0.00,,,0.00,,2013-05-04 16:03:00,
2013-05-04 11:12:00,65.0,44.0,30.01,NW,304,1.0,5.0,47,0.00,,,0.00,,2013-05-04 16:12:00,
2013-05-04 11:22:00,66.0,44.0,30.02,WSW,257,0.0,5.0,45,0.00,,,0.00,,2013-05-04 16:22:00,
2013-05-04 11:33:00,68.0,45.0,30.01,West,264,0.0,3.0,44,0.00,,,0.00,,2013-05-04 16:33:00,
2013-05-04 11:42:00,68.0,45.0,30.01,West,264,0.0,3.0,44,0.00,,,0.00,,2013-05-04 16:42:00,
2013-05-04 11:52:00,69.0,42.0,30.01,SW,235,2.0,6.0,38,0.00,,,0.00,,2013-05-04 16:52:00,
2013-05-04 12:02:00,69.0,44.0,30.00,NW,306,0.0,3.0,40,0.00,,,0.00,,2013-05-04 17:02:00,
2013-05-04 12:12:00,69.0,44.0,30.00,NW,306,0.0,3.0,40,0.00,,,0.00,,2013-05-04 17:12:00,
2013-05-04 12:22:00,70.0,40.0,29.99,WNW,294,2.0,4.0,33,0.00,,,0.00,,2013-05-04 17:22:00,
2013-05-04 12:32:00,70.0,44.0,29.99,WSW,248,0.0,6.0,39,0.00,,,0.00,,2013-05-04 17:32:00,
2013-05-04 12:42:00,70.0,44.0,29.99,WSW,248,0.0,6.0,39,0.00,,,0.00,,2013-05-04 17:42:00,
2013-05-04 12:52:00,70.0,42.0,29.98,SW,235,0.0,4.0,36,0.00,,,0.00,,2013-05-04 17:52:00,
2013-05-04 13:01:00,70.0,44.0,29.98,West,263,1.0,4.0,39,0.00,,,0.00,,2013-05-04 18:01:00,
2013-05-04 13:12:00,70.0,44.0,29.98,West,263,1.0,4.0,39,0.00,,,0.00,,2013-05-04 18:12:00,
2013-05-04 13:21:00,71.0,42.0,29.97,SSW,198,0.0,6.0,35,0.00,,,0.00,,2013-05-04 18:21:00,
2013-05-04 13:32:00,72.0,42.0,29.96,WSW,248,1.0,3.0,34,0.00,,,0.00,,2013-05-04 18:32:00,
2013-05-04 13:42:00,72.0,42.0,29.96,WSW,248,1.0,3.0,34,0.00,,,0.00,,2013-05-04 18:42:00,
2013-05-04 13:52:00,71.0,43.0,29.95,WSW,240,1.0,7.0,36,0.00,,,0.00,,2013-05-04 18:52:00,
2013-05-04 14:01:00,72.0,44.0,29.94,NW,311,1.0,6.0,37,0.00,,,0.00,,2013-05-04 19:01:00,
2013-05-04 14:11:00,72.0,44.0,29.94,NW,311,1.0,6.0,37,0.00,,,0.00,,2013-05-04 19:11:00,
2013-05-04 14:21:00,73.0,41.0,29.93,NW,311,2.0,5.0,32,0.00,,,0.00,,2013-05-04 19:21:00,
2013-05-04 14:32:00,74.0,45.0,29.93,SSE,165,1.0,4.0,36,0.00,,,0.00,,2013-05-04 19:32:00,
2013-05-04 14:42:00,74.0,45.0,29.93,SSE,165,1.0,4.0,36,0.00,,,0.00,,2013-05-04 19:42:00,
2013-05-04 14:52:00,74.0,45.0,29.92,SE,129,1.0,6.0,35,0.00,,,0.00,,2013-05-04 19:52:00,
2013-05-04 15:02:00,74.0,44.0,29.91,SW,226,2.0,7.0,34,0.00,,,0.00,,2013-05-04 20:02:00,
2013-05-04 15:11:00,74.0,44.0,29.91,SW,226,2.0,7.0,34,0.00,,,0.00,,2013-05-04 20:11:00,
2013-05-04 15:22:00,74.0,42.0,29.91,SW,229,2.0,6.0,32,0.00,,,0.00,,2013-05-04 20:22:00,
2013-05-04 15:32:00,74.0,42.0,29.89,West,259,2.0,6.0,32,0.00,,,0.00,,2013-05-04 20:32:00,
2013-05-04 15:42:00,74.0,42.0,29.89,West,259,2.0,6.0,32,0.00,,,0.00,,2013-05-04 20:42:00,
2013-05-04 15:52:00,74.0,45.0,29.89,WSW,245,2.0,6.0,35,0.00,,,0.00,,2013-05-04 20:52:00,
2013-05-04 16:02:00,75.0,45.0,29.88,WSW,250,2.0,7.0,34,0.00,,,0.00,,2013-05-04 21:02:00,
2013-05-04 16:12:00,75.0,45.0,29.88,WSW,250,2.0,7.0,34,0.00,,,0.00,,2013-05-04 21:12:00,
2013-05-04 16:22:00,74.0,44.0,29.88,WSW,238,4.0,8.0,34,0.00,,,0.00,,2013-05-04 21:22:00,
2013-05-04 16:33:00,72.0,45.0,29.87,WSW,255,2.0,8.0,38,0.00,,,0.00,,2013-05-04 21:33:00,
2013-05-04 16:43:00,72.0,45.0,29.87,WSW,255,2.0,8.0,38,0.00,,,0.00,,2013-05-04 21:43:00,
2013-05-04 16:53:00,72.0,46.0,29.87,WSW,238,0.0,5.0,39,0.00,,,0.00,,2013-05-04 21:53:00,
2013-05-04 17:03:00,72.0,46.0,29.87,WNW,290,3.0,7.0,40,0.00,,,0.00,,2013-05-04 22:03:00,
2013-05-04 17:12:00,72.0,46.0,29.87,WNW,290,3.0,7.0,40,0.00,,,0.00,,2013-05-04 22:12:00,
2013-05-04 17:22:00,71.0,47.0,29.86,SW,232,0.0,7.0,42,0.00,,,0.00,,2013-05-04 22:22:00,
2013-05-04 17:33:00,71.0,47.0,29.86,WSW,245,2.0,5.0,43,0.00,,,0.00,,2013-05-04 22:33:00,
2013-05-04 17:42:00,71.0,47.0,29.86,WSW,245,2.0,5.0,43,0.00,,,0.00,,2013-05-04 22:42:00,
2013-05-04 17:52:00,71.0,48.0,29.86,WSW,256,2.0,5.0,44,0.00,,,0.00,,2013-05-04 22:52:00,
2013-05-04 18:02:00,71.0,50.0,29.86,SW,226,2.0,6.0,47,0.00,,,0.00,,2013-05-04 23:02:00,
2013-05-04 18:11:00,71.0,50.0,29.86,SW,226,2.0,6.0,47,0.00,,,0.00,,2013-05-04 23:11:00,
2013-05-04 18:22:00,70.0,50.0,29.86,WSW,252,1.0,6.0,49,0.00,,,0.00,,2013-05-04 23:22:00,
2013-05-04 18:32:00,70.0,50.0,29.86,West,263,2.0,7.0,49,0.00,,,0.00,,2013-05-04 23:32:00,
2013-05-04 18:42:00,70.0,50.0,29.86,West,263,2.0,7.0,49,0.00,,,0.00,,2013-05-04 23:42:00,
2013-05-04 18:52:00,69.0,51.0,29.86,SW,235,1.0,6.0,52,0.00,,,0.00,,2013-05-04 23:52:00,
2013-05-04 19:01:00,69.0,51.0,29.86,East,100,1.0,5.0,52,0.00,,,0.00,,2013-05-05 00:01:00,
2013-05-04 19:11:00,69.0,51.0,29.86,East,100,1.0,5.0,52,0.00,,,0.00,,2013-05-05 00:11:00,
2013-05-04 19:21:00,68.0,51.0,29.86,WSW,251,2.0,4.0,54,0.00,,,0.00,,2013-05-05 00:21:00,
2013-05-04 19:32:00,67.0,51.0,29.86,SW,228,2.0,6.0,57,0.00,,,0.00,,2013-05-05 00:32:00,
2013-05-04 19:42:00,67.0,51.0,29.86,SW,228,2.0,6.0,57,0.00,,,0.00,,2013-05-05 00:42:00,
2013-05-04 19:52:00,66.0,51.0,29.87,ESE,103,1.0,3.0,59,0.00,,,0.00,,2013-05-05 00:52:00,
2013-05-04 20:01:00,65.0,51.0,29.87,SSW,213,0.0,5.0,61,0.00,,,0.00,,2013-05-05 01:01:00,
2013-05-04 20:11:00,65.0,51.0,29.87,SSW,213,0.0,5.0,61,0.00,,,0.00,,2013-05-05 01:11:00,
2013-05-04 20:21:00,65.0,53.0,29.87,WSW,251,1.0,3.0,64,0.00,,,0.00,,2013-05-05 01:21:00,
2013-05-04 20:32:00,64.0,52.0,29.87,WSW,243,0.0,3.0,66,0.00,,,0.00,,2013-05-05 01:32:00,
2013-05-04 20:42:00,64.0,52.0,29.87,WSW,243,0.0,3.0,66,0.00,,,0.00,,2013-05-05 01:42:00,
2013-05-04 20:52:00,63.0,52.0,29.88,SW,236,0.0,2.0,68,0.00,,,0.00,,2013-05-05 01:52:00,
2013-05-04 21:02:00,63.0,53.0,29.88,WSW,243,0.0,1.0,70,0.00,,,0.00,,2013-05-05 02:02:00,
2013-05-04 21:11:00,63.0,53.0,29.88,WSW,243,0.0,1.0,70,0.00,,,0.00,,2013-05-05 02:11:00,
2013-05-04 21:22:00,62.0,52.0,29.88,WSW,248,0.0,1.0,71,0.00,,,0.00,,2013-05-05 02:22:00,
2013-05-04 21:31:00,62.0,53.0,29.89,SW,236,0.0,2.0,73,0.00,,,0.00,,2013-05-05 02:31:00,
2013-05-04 21:42:00,62.0,53.0,29.89,SW,236,0.0,2.0,73,0.00,,,0.00,,2013-05-05 02:42:00,
2013-05-04 21:52:00,62.0,54.0,29.89,WSW,255,0.0,1.0,75,0.00,,,0.00,,2013-05-05 02:52:00,
2013-05-04 22:01:00,61.0,53.0,29.89,SSW,205,0.0,1.0,76,0.00,,,0.00,,2013-05-05 03:01:00,
2013-05-04 22:11:00,61.0,53.0,29.89,SSW,205,0.0,1.0,76,0.00,,,0.00,,2013-05-05 03:11:00,
2013-05-04 22:21:00,61.0,54.0,29.90,SW,226,0.0,1.0,78,0.00,,,0.00,,2013-05-05 03:21:00,
2013-05-04 22:33:00,60.0,54.0,29.90,SSW,194,0.0,1.0,80,0.00,,,0.00,,2013-05-05 03:33:00,
2013-05-04 22:42:00,60.0,54.0,29.90,SSW,194,0.0,1.0,80,0.00,,,0.00,,2013-05-05 03:42:00,
2013-05-04 22:53:00,59.0,54.0,29.90,SSW,198,0.0,0.0,82,0.00,,,0.00,,2013-05-05 03:53:00,
2013-05-04 23:02:00,59.0,54.0,29.90,WSW,245,0.0,1.0,84,0.00,,,0.00,,2013-05-05 04:02:00,
2013-05-04 23:12:00,59.0,54.0,29.90,WSW,245,0.0,1.0,84,0.00,,,0.00,,2013-05-05 04:12:00,
2013-05-04 23:22:00,59.0,54.0,29.90,WSW,243,0.0,1.0,85,0.00,,,0.00,,2013-05-05 04:22:00,
2013-05-04 23:32:00,58.0,54.0,29.90,WSW,243,0.0,0.0,86,0.00,,,0.00,,2013-05-05 04:32:00,
2013-05-04 23:43:00,58.0,54.0,29.90,WSW,243,0.0,0.0,86,0.00,,,0.00,,2013-05-05 04:43:00,
2013-05-04 23:53:00,57.0,53.0,29.89,WSW,243,0.0,0.0,88,0.00,,,0.00,,2013-05-05 04:53:00,